createdAt,value
2018-10-17T00:01:15.158Z,109.97
2018-10-17T00:03:50.863Z,116.90
2018-10-17T00:06:26.485Z,108.37
2018-10-17T00:09:02.164Z,111.08
2018-10-17T00:11:37.571Z,108.30
2018-10-17T00:14:12.965Z,88.70
2018-10-17T00:16:48.360Z,107.35
2018-10-17T00:19:23.933Z,97.02
2018-10-17T00:21:59.850Z,97.27
2018-10-17T00:24:35.389Z,100.40
2018-10-17T00:27:10.825Z,97.17
2018-10-17T00:29:46.583Z,89.20
2018-10-17T00:32:28.600Z,113.03
2018-10-17T00:35:04.014Z,105.20
2018-10-17T00:37:39.310Z,97.22
2018-10-17T00:40:14.738Z,105.87
2018-10-17T00:42:50.165Z,107.90
2018-10-17T00:45:25.556Z,83.42
2018-10-17T00:48:00.974Z,106.87
2018-10-17T00:50:36.341Z,81.70
2018-10-17T00:53:11.739Z,107.17
2018-10-17T00:55:47.198Z,102.38
2018-10-17T00:58:22.708Z,121.13
2018-10-17T01:00:58.326Z,101.10
2018-10-17T01:03:33.923Z,92.35
2018-10-17T01:06:09.392Z,102.47
2018-10-17T01:08:44.771Z,79.65
2018-10-17T01:11:20.284Z,94.13
2018-10-17T01:13:55.770Z,82.42
2018-10-17T01:16:31.144Z,88.30
2018-10-17T01:19:07.067Z,87.60
2018-10-17T01:21:42.321Z,80.70
2018-10-17T01:24:17.665Z,105.32
2018-10-17T01:26:53.178Z,121.90
2018-10-17T01:29:28.581Z,103.55
2018-10-17T01:32:04.001Z,115.72
2018-10-17T01:34:39.473Z,111.52
2018-10-17T01:37:14.957Z,90.55
2018-10-17T01:39:50.551Z,102.05
2018-10-17T01:42:26.183Z,100.70
2018-10-17T01:45:01.851Z,122.25
2018-10-17T01:47:37.315Z,95.75
2018-10-17T01:50:13.046Z,93.78
2018-10-17T01:52:48.704Z,97.10
2018-10-17T01:55:24.031Z,108.92
2018-10-17T01:57:59.393Z,87.33
2018-10-17T02:00:34.680Z,86.55
2018-10-17T02:03:10.233Z,99.92
2018-10-17T02:05:45.723Z,69.45
2018-10-17T02:08:21.225Z,75.05
2018-10-17T02:10:56.713Z,93.78
2018-10-17T02:13:32.231Z,76.42
2018-10-17T02:16:07.881Z,89.37
2018-10-17T02:18:43.521Z,92.37
2018-10-17T02:21:19.000Z,100.67
2018-10-17T02:23:54.290Z,91.37
2018-10-17T02:26:29.684Z,86.85
2018-10-17T02:29:05.661Z,84.13
2018-10-17T02:31:40.856Z,107.87
2018-10-17T02:34:16.191Z,97.92
2018-10-17T02:36:51.458Z,113.15
2018-10-17T02:39:26.802Z,117.40
2018-10-17T02:42:02.231Z,123.95
2018-10-17T02:44:37.503Z,128.05
2018-10-17T02:47:12.835Z,110.37
2018-10-17T02:49:48.126Z,126.70
2018-10-17T02:52:23.824Z,122.72
2018-10-17T02:54:59.386Z,121.57
2018-10-17T02:57:34.734Z,126.00
2018-10-17T03:00:10.624Z,121.97
2018-10-17T03:02:46.025Z,107.97
2018-10-17T03:05:21.434Z,100.15
2018-10-17T03:07:56.994Z,90.30
2018-10-17T03:10:32.423Z,83.37
2018-10-17T03:13:07.824Z,102.72
2018-10-17T03:15:43.161Z,88.85
2018-10-17T03:18:18.621Z,95.53
2018-10-17T03:20:54.103Z,100.38
2018-10-17T03:23:29.537Z,92.40
2018-10-17T03:26:04.986Z,103.05
2018-10-17T03:28:40.251Z,100.10
2018-10-17T03:31:15.739Z,116.55
2018-10-17T03:33:51.076Z,134.45
2018-10-17T03:36:26.507Z,110.50
2018-10-17T03:39:01.916Z,111.75
2018-10-17T03:41:37.324Z,112.32
2018-10-17T03:44:12.904Z,112.88
2018-10-17T03:46:48.423Z,114.52
2018-10-17T03:49:24.061Z,108.63
2018-10-17T03:51:59.475Z,131.85
2018-10-17T03:54:34.914Z,131.90
2018-10-17T03:57:10.595Z,128.18
2018-10-17T03:59:46.127Z,133.18
2018-10-17T04:02:21.603Z,139.85
2018-10-17T04:04:56.984Z,121.72
2018-10-17T04:07:32.162Z,125.82
2018-10-17T04:10:07.612Z,123.50
2018-10-17T04:12:42.945Z,134.90
2018-10-17T04:15:18.201Z,148.55
2018-10-17T04:17:53.721Z,138.97
2018-10-17T04:20:29.311Z,118.35
2018-10-17T04:23:04.951Z,116.15
2018-10-17T04:25:40.292Z,137.20
2018-10-17T04:28:15.737Z,142.15
2018-10-17T04:30:51.044Z,133.85
2018-10-17T04:33:26.459Z,132.90
2018-10-17T04:36:01.883Z,148.47
2018-10-17T04:38:37.205Z,131.72
2018-10-17T04:41:12.889Z,139.65
2018-10-17T04:43:48.201Z,154.18
2018-10-17T04:46:23.614Z,136.45
2018-10-17T04:48:58.987Z,129.53
2018-10-17T04:51:34.551Z,156.80
2018-10-17T04:54:09.963Z,134.32
2018-10-17T04:56:45.371Z,128.40
2018-10-17T04:59:20.731Z,144.15
2018-10-17T05:01:56.189Z,162.15
2018-10-17T05:04:31.644Z,135.55
2018-10-17T05:07:07.187Z,139.05
2018-10-17T05:09:42.524Z,148.20
2018-10-17T05:12:17.884Z,170.68
2018-10-17T05:14:53.220Z,139.07
2018-10-17T05:17:28.502Z,165.32
2018-10-17T05:20:03.947Z,147.87
2018-10-17T05:22:39.477Z,149.27
2018-10-17T05:25:14.902Z,158.90
2018-10-17T05:27:50.402Z,165.60
2018-10-17T05:30:25.731Z,149.68
2018-10-17T05:33:01.081Z,145.57
2018-10-17T05:35:36.871Z,122.72
2018-10-17T05:38:12.484Z,135.97
2018-10-17T05:40:48.022Z,148.13
2018-10-17T05:43:23.585Z,153.32
2018-10-17T05:45:58.981Z,179.78
2018-10-17T05:48:34.449Z,155.00
2018-10-17T05:51:09.943Z,165.25
2018-10-17T05:53:45.381Z,151.07
2018-10-17T05:56:20.795Z,185.35
2018-10-17T05:58:56.198Z,145.85
2018-10-17T06:01:31.505Z,164.50
2018-10-17T06:04:07.385Z,170.12
2018-10-17T06:06:42.867Z,165.57
2018-10-17T06:09:18.292Z,160.15
2018-10-17T06:11:53.782Z,163.05
2018-10-17T06:14:29.091Z,154.00
2018-10-17T06:17:04.529Z,160.37
2018-10-17T06:19:39.812Z,168.52
2018-10-17T06:22:15.262Z,139.43
2018-10-17T06:24:51.112Z,140.12
2018-10-17T06:27:26.672Z,137.18
2018-10-17T06:30:02.106Z,147.22
2018-10-17T06:32:37.722Z,115.28
2018-10-17T06:35:13.112Z,126.40
2018-10-17T06:37:48.484Z,120.67
2018-10-17T06:40:24.143Z,116.53
2018-10-17T06:42:59.469Z,125.45
2018-10-17T06:45:34.822Z,119.10
2018-10-17T06:48:10.357Z,121.97
2018-10-17T06:50:45.612Z,116.60
2018-10-17T06:53:20.806Z,97.95
2018-10-17T06:55:56.074Z,107.43
2018-10-17T06:58:31.654Z,97.25
2018-10-17T07:01:07.193Z,96.20
2018-10-17T07:03:42.799Z,94.77
2018-10-17T07:06:18.157Z,98.15
2018-10-17T07:08:53.302Z,87.42
2018-10-17T07:11:28.821Z,85.25
2018-10-17T07:14:05.543Z,89.60
2018-10-17T07:16:40.834Z,79.62
2018-10-17T07:19:16.246Z,79.20
2018-10-17T07:21:51.466Z,74.70
2018-10-17T07:24:26.737Z,68.00
2018-10-17T07:27:02.298Z,74.75
2018-10-17T07:29:37.944Z,65.30
2018-10-17T07:32:13.332Z,68.40
2018-10-17T07:34:48.660Z,63.80
2018-10-17T07:37:24.012Z,69.03
2018-10-17T07:39:59.344Z,67.40
2018-10-17T07:42:34.812Z,64.47
2018-10-17T07:45:10.066Z,59.10
2018-10-17T07:47:45.363Z,59.15
2018-10-17T07:50:20.597Z,61.77
2018-10-17T07:52:55.811Z,53.27
2018-10-17T07:55:31.187Z,61.90
2018-10-17T07:58:06.940Z,56.90
2018-10-17T08:00:42.189Z,51.23
2018-10-17T08:03:17.498Z,60.08
2018-10-17T08:05:52.923Z,51.03
2018-10-17T08:08:28.171Z,51.27
2018-10-17T08:11:03.406Z,57.87
2018-10-17T08:13:38.814Z,50.23
2018-10-17T08:17:17.419Z,55.33
2018-10-17T08:19:52.744Z,49.00
2018-10-17T08:22:27.904Z,59.43
2018-10-17T08:25:03.391Z,52.00
2018-10-17T08:27:38.629Z,53.87
2018-10-17T08:30:13.959Z,54.00
2018-10-17T08:32:49.154Z,55.20
2018-10-17T08:35:24.487Z,47.63
2018-10-17T08:37:59.739Z,52.70
2018-10-17T08:40:34.981Z,49.90
2018-10-17T08:43:10.316Z,49.07
2018-10-17T08:45:45.664Z,49.30
2018-10-17T08:48:21.116Z,50.40
2018-10-17T08:50:56.377Z,45.80
2018-10-17T08:53:31.572Z,46.53
2018-10-17T08:56:06.829Z,46.70
2018-10-17T08:58:41.999Z,42.77
2018-10-17T09:01:17.364Z,44.57
2018-10-17T09:03:52.731Z,45.50
2018-10-17T09:06:27.973Z,40.87
2018-10-17T09:09:03.331Z,43.57
2018-10-17T09:11:38.991Z,41.10
2018-10-17T09:14:14.375Z,40.20
2018-10-17T09:16:49.762Z,52.13
2018-10-17T09:19:25.161Z,43.47
2018-10-17T09:22:00.952Z,39.03
2018-10-17T09:24:36.173Z,39.83
2018-10-17T09:27:11.612Z,35.70
2018-10-17T09:29:47.075Z,39.83
2018-10-17T09:32:22.381Z,36.07
2018-10-17T09:34:57.628Z,37.77
2018-10-17T09:37:33.103Z,31.83
2018-10-17T09:40:09.825Z,33.90
2018-10-17T09:42:45.318Z,34.20
2018-10-17T09:45:20.534Z,31.37
2018-10-17T09:47:55.698Z,32.00
2018-10-17T09:50:30.938Z,32.10
2018-10-17T09:53:06.358Z,30.67
2018-10-17T09:55:41.725Z,32.77
2018-10-17T09:58:17.036Z,28.00
2018-10-17T10:00:57.304Z,29.50
2018-10-17T10:03:32.506Z,27.30
2018-10-17T10:06:07.911Z,26.83
2018-10-17T10:08:43.205Z,25.53
2018-10-17T10:11:18.441Z,26.27
2018-10-17T10:13:53.840Z,28.63
2018-10-17T10:16:29.170Z,24.23
2018-10-17T10:19:04.511Z,23.37
2018-10-17T10:21:39.814Z,27.03
2018-10-17T10:24:15.156Z,25.90
2018-10-17T10:26:50.423Z,24.17
2018-10-17T10:29:25.904Z,21.97
2018-10-17T10:32:01.412Z,22.80
2018-10-17T10:34:36.719Z,23.83
2018-10-17T10:37:11.975Z,20.63
2018-10-17T10:39:47.274Z,21.50
2018-10-17T10:42:22.894Z,19.53
2018-10-17T10:44:58.029Z,19.07
2018-10-17T10:47:33.267Z,17.77
2018-10-17T10:50:09.678Z,20.57
2018-10-17T10:52:44.699Z,20.30
2018-10-17T10:55:19.872Z,22.00
2018-10-17T10:57:55.172Z,21.30
2018-10-17T11:00:30.286Z,21.17
2018-10-17T11:03:06.135Z,24.20
2018-10-17T11:05:41.616Z,20.70
2018-10-17T11:08:16.667Z,18.17
2018-10-17T11:10:51.848Z,19.03
2018-10-17T11:13:27.130Z,19.97
2018-10-17T11:16:02.555Z,17.80
2018-10-17T11:18:37.880Z,18.93
2018-10-17T11:21:13.013Z,15.40
2018-10-17T11:23:48.480Z,16.33
2018-10-17T11:26:23.732Z,16.40
2018-10-17T11:28:59.127Z,18.90
2018-10-17T11:31:34.651Z,14.77
2018-10-17T11:34:09.782Z,15.40
2018-10-17T11:36:44.991Z,14.00
2018-10-17T11:39:20.348Z,14.60
2018-10-17T11:41:55.676Z,13.87
2018-10-17T11:44:31.003Z,12.50
2018-10-17T11:47:06.533Z,14.20
2018-10-17T11:49:41.986Z,10.90
2018-10-17T11:52:17.462Z,14.10
2018-10-17T11:54:52.658Z,13.73
2018-10-17T11:57:28.183Z,11.30
2018-10-17T12:00:03.763Z,11.63
2018-10-17T12:02:39.124Z,12.10
2018-10-17T12:05:15.661Z,11.47
2018-10-17T12:07:50.609Z,19.53
2018-10-17T12:10:26.113Z,12.30
2018-10-17T12:13:01.774Z,14.87
2018-10-17T12:15:41.707Z,11.30
2018-10-17T12:18:17.092Z,10.80
2018-10-17T12:20:52.845Z,11.60
2018-10-17T12:23:28.231Z,11.87
2018-10-17T12:26:03.644Z,14.97
2018-10-17T12:28:39.103Z,12.40
2018-10-17T12:31:14.611Z,13.40
2018-10-17T12:33:50.015Z,11.60
2018-10-17T12:36:25.350Z,10.33
2018-10-17T12:39:00.918Z,10.60
2018-10-17T12:41:36.543Z,10.63
2018-10-17T12:44:12.030Z,14.07
2018-10-17T12:46:47.580Z,24.47
2018-10-17T12:49:23.117Z,19.30
2018-10-17T12:51:58.669Z,15.20
2018-10-17T12:54:34.205Z,125.77
2018-10-17T12:57:09.840Z,12.23
2018-10-17T12:59:45.614Z,13.03
2018-10-17T13:02:21.087Z,11.90
2018-10-17T13:04:56.590Z,13.23
2018-10-17T13:07:31.966Z,16.97
2018-10-17T13:10:08.635Z,17.03
2018-10-17T13:12:43.970Z,15.80
2018-10-17T13:15:21.325Z,14.87
2018-10-17T13:17:57.215Z,11.17
2018-10-17T13:20:32.792Z,13.87
2018-10-17T13:23:08.409Z,11.43
2018-10-17T13:25:43.997Z,11.50
2018-10-17T13:28:19.510Z,11.73
2018-10-17T13:30:54.861Z,11.00
2018-10-17T13:33:30.327Z,11.37
2018-10-17T13:36:05.753Z,10.77
2018-10-17T13:38:41.162Z,11.50
2018-10-17T13:41:16.542Z,9.63
2018-10-17T13:43:52.101Z,10.53
2018-10-17T13:46:27.890Z,10.47
2018-10-17T13:49:03.945Z,10.57
2018-10-17T13:51:39.946Z,11.87
2018-10-17T13:54:15.372Z,9.90
2018-10-17T13:56:51.579Z,14.60
2018-10-17T13:59:28.459Z,10.03
2018-10-17T14:02:03.672Z,10.77
2018-10-17T14:04:38.980Z,11.47
2018-10-17T14:07:14.445Z,11.20
2018-10-17T14:09:49.809Z,14.60
2018-10-17T14:12:26.590Z,11.17
2018-10-17T14:15:02.105Z,11.23
2018-10-17T14:17:37.502Z,13.53
2018-10-17T14:20:13.121Z,11.57
2018-10-17T14:22:48.913Z,13.10
2018-10-17T14:25:24.543Z,13.30
2018-10-17T14:27:59.961Z,14.80
2018-10-17T14:30:35.342Z,13.90
2018-10-17T14:33:10.934Z,13.27
2018-10-17T14:35:46.386Z,12.20
2018-10-17T14:38:22.113Z,12.07
2018-10-17T14:40:57.646Z,15.70
2018-10-17T14:43:32.930Z,16.17
2018-10-17T14:46:08.189Z,13.13
2018-10-17T14:48:43.712Z,14.07
2018-10-17T14:51:19.290Z,11.40
2018-10-17T14:53:54.628Z,12.17
2018-10-17T14:56:30.147Z,13.30
2018-10-17T14:59:05.805Z,12.97
2018-10-17T15:01:41.283Z,12.00
2018-10-17T15:04:17.030Z,11.33
2018-10-17T15:06:52.412Z,11.73
2018-10-17T15:09:28.050Z,11.17
2018-10-17T15:12:03.428Z,13.20
2018-10-17T15:14:38.794Z,11.83
2018-10-17T15:17:14.284Z,11.83
2018-10-17T15:19:49.656Z,12.67
2018-10-17T15:22:25.289Z,13.33
2018-10-17T15:25:01.315Z,11.03
2018-10-17T15:27:36.904Z,13.00
2018-10-17T15:30:12.481Z,11.60
2018-10-17T15:32:47.863Z,13.67
2018-10-17T15:35:23.867Z,15.17
2018-10-17T15:37:59.518Z,13.50
2018-10-17T15:40:34.921Z,15.70
2018-10-17T15:43:10.610Z,15.77
2018-10-17T15:45:45.910Z,14.97
2018-10-17T15:48:21.421Z,14.27
2018-10-17T15:50:57.032Z,15.20
2018-10-17T15:53:32.428Z,16.07
2018-10-17T15:56:08.097Z,16.57
2018-10-17T15:58:43.636Z,17.33
2018-10-17T16:01:19.181Z,19.57
2018-10-17T16:03:54.604Z,18.60
2018-10-17T16:06:30.176Z,17.50
2018-10-17T16:09:09.811Z,19.83
2018-10-17T16:11:45.355Z,18.17
2018-10-17T16:14:20.876Z,19.57
2018-10-17T16:16:56.604Z,18.57
2018-10-17T16:19:32.063Z,23.30
2018-10-17T16:22:07.671Z,23.87
2018-10-17T16:24:43.232Z,25.70
2018-10-17T16:27:18.784Z,26.70
2018-10-17T16:29:54.454Z,29.40
2018-10-17T16:32:29.936Z,29.20
2018-10-17T16:35:06.309Z,29.60
2018-10-17T16:37:41.961Z,29.77
2018-10-17T16:40:17.500Z,31.20
2018-10-17T16:42:53.136Z,31.30
2018-10-17T16:45:28.789Z,36.80
2018-10-17T16:48:04.348Z,35.67
2018-10-17T16:50:40.056Z,38.83
2018-10-17T16:53:15.521Z,36.47
2018-10-17T16:55:51.156Z,41.73
2018-10-17T16:58:26.651Z,46.93
2018-10-17T17:01:02.292Z,35.97
2018-10-17T17:03:37.624Z,39.30
2018-10-17T17:06:13.161Z,39.50
2018-10-17T17:08:48.611Z,43.23
2018-10-17T17:11:24.954Z,43.60
2018-10-17T17:14:06.860Z,43.37
2018-10-17T17:16:42.464Z,49.87
2018-10-17T17:19:18.058Z,47.03
2018-10-17T17:21:53.646Z,49.50
2018-10-17T17:24:29.221Z,55.30
2018-10-17T17:27:05.120Z,51.10
2018-10-17T17:29:40.871Z,55.07
2018-10-17T17:32:16.441Z,51.63
2018-10-17T17:34:51.962Z,46.37
2018-10-17T17:37:27.324Z,51.53
2018-10-17T17:40:02.778Z,48.90
2018-10-17T17:42:38.370Z,54.33
2018-10-17T17:45:13.761Z,47.77
2018-10-17T17:47:49.516Z,50.27
2018-10-17T17:50:25.093Z,48.20
2018-10-17T17:53:00.405Z,53.37
2018-10-17T17:55:35.704Z,50.17
2018-10-17T17:58:11.226Z,53.70
2018-10-17T18:00:46.873Z,62.80
2018-10-17T18:03:22.495Z,53.83
2018-10-17T18:05:58.244Z,56.88
2018-10-17T18:08:33.568Z,49.97
2018-10-17T18:11:19.971Z,61.70
2018-10-17T18:13:56.630Z,56.50
2018-10-17T18:16:32.025Z,57.17
2018-10-17T18:19:07.606Z,62.83
2018-10-17T18:21:43.021Z,60.35
2018-10-17T18:24:18.593Z,60.70
2018-10-17T18:26:54.151Z,59.70
2018-10-17T18:29:29.667Z,63.67
2018-10-17T18:32:05.629Z,61.92
2018-10-17T18:34:41.141Z,70.33
2018-10-17T18:37:16.576Z,70.13
2018-10-17T18:39:52.110Z,69.80
2018-10-17T18:42:27.534Z,63.43
2018-10-17T18:45:03.201Z,64.62
2018-10-17T18:47:38.786Z,69.53
2018-10-17T18:50:14.078Z,68.40
2018-10-17T18:52:49.664Z,76.47
2018-10-17T18:55:24.930Z,72.33
2018-10-17T18:58:00.366Z,72.97
2018-10-17T19:00:36.028Z,68.72
2018-10-17T19:03:11.667Z,68.90
2018-10-17T19:05:46.816Z,71.95
2018-10-17T19:08:22.221Z,74.10
2018-10-17T19:10:57.472Z,83.00
2018-10-17T19:13:32.891Z,68.62
2018-10-17T19:16:08.755Z,78.83
2018-10-17T19:18:44.244Z,77.97
2018-10-17T19:21:19.907Z,78.67
2018-10-17T19:23:55.364Z,76.67
2018-10-17T19:26:30.891Z,73.35
2018-10-17T19:29:06.362Z,77.17
2018-10-17T19:31:41.994Z,76.47
2018-10-17T19:34:17.284Z,88.15
2018-10-17T19:36:52.514Z,85.00
2018-10-17T19:39:27.874Z,76.60
2018-10-17T19:42:03.406Z,92.15
2018-10-17T19:44:38.791Z,77.25
2018-10-17T19:47:14.308Z,89.70
2018-10-17T19:49:49.864Z,89.60
2018-10-17T19:52:25.283Z,88.97
2018-10-17T19:55:00.818Z,89.05
2018-10-17T19:57:35.993Z,89.87
2018-10-17T20:00:13.415Z,90.77
2018-10-17T20:02:48.771Z,87.08
2018-10-17T20:05:24.267Z,88.75
2018-10-17T20:07:59.883Z,96.15
2018-10-17T20:10:35.643Z,86.97
2018-10-17T20:13:11.187Z,89.95
2018-10-17T20:15:46.718Z,94.92
2018-10-17T20:18:22.110Z,93.67
2018-10-17T20:20:57.541Z,103.90
2018-10-17T20:23:33.301Z,108.65
2018-10-17T20:26:08.814Z,106.22
2018-10-17T20:28:44.180Z,97.90
2018-10-17T20:31:19.736Z,100.97
2018-10-17T20:33:55.184Z,98.10
2018-10-17T20:36:30.745Z,96.85
2018-10-17T20:39:11.011Z,107.87
2018-10-17T20:41:48.772Z,115.45
2018-10-17T20:44:24.365Z,108.15
2018-10-17T20:46:59.762Z,108.70
2018-10-17T20:49:35.223Z,117.97
2018-10-17T20:52:10.844Z,108.85
2018-10-17T20:54:48.061Z,127.50
2018-10-17T20:57:23.577Z,114.22
2018-10-17T20:59:59.173Z,117.72
2018-10-17T21:02:34.841Z,115.85
2018-10-17T21:05:10.564Z,113.83
2018-10-17T21:07:46.225Z,117.30
2018-10-17T21:10:21.775Z,133.15
2018-10-17T21:12:57.414Z,126.95
2018-10-17T21:15:33.216Z,118.75
2018-10-17T21:18:08.770Z,125.45
2018-10-17T21:20:44.041Z,131.12
2018-10-17T21:23:19.625Z,117.95
2018-10-17T21:25:54.990Z,122.07
2018-10-17T21:28:30.302Z,116.47
2018-10-17T21:31:05.960Z,107.50
2018-10-17T21:33:41.505Z,108.30
2018-10-17T21:36:17.021Z,110.12
2018-10-17T21:38:52.462Z,100.12
2018-10-17T21:41:28.175Z,117.35
2018-10-17T21:44:03.947Z,104.30
2018-10-17T21:46:39.721Z,107.05
2018-10-17T21:49:15.081Z,120.15
2018-10-17T21:51:50.625Z,110.95
2018-10-17T21:54:26.142Z,103.67
2018-10-17T21:57:01.596Z,117.30
2018-10-17T21:59:36.974Z,111.92
2018-10-17T22:02:12.469Z,111.47
2018-10-17T22:04:47.985Z,106.15
2018-10-17T22:07:23.381Z,109.57
2018-10-17T22:09:58.919Z,108.90
2018-10-17T22:12:34.365Z,106.50
2018-10-17T22:15:10.412Z,111.85
2018-10-17T22:17:46.135Z,110.50
2018-10-17T22:20:21.665Z,118.10
2018-10-17T22:22:57.084Z,110.92
2018-10-17T22:25:32.744Z,124.47
2018-10-17T22:28:08.194Z,115.70
2018-10-17T22:30:43.732Z,117.62
2018-10-17T22:33:19.365Z,111.50
2018-10-17T22:35:57.901Z,126.80
2018-10-17T22:38:33.413Z,116.47
2018-10-17T22:41:08.873Z,114.55
2018-10-17T22:43:44.282Z,99.37
2018-10-17T22:46:19.872Z,112.70
2018-10-17T22:48:55.455Z,123.95
2018-10-17T22:51:30.921Z,122.78
2018-10-17T22:54:06.706Z,104.40
2018-10-17T22:56:42.034Z,110.22
2018-10-17T22:59:17.442Z,117.15
2018-10-17T23:01:52.966Z,115.92
2018-10-17T23:04:28.504Z,118.00
2018-10-17T23:07:04.069Z,108.65
2018-10-17T23:09:39.566Z,100.47
2018-10-17T23:12:15.147Z,99.40
2018-10-17T23:14:50.516Z,105.85
2018-10-17T23:17:26.242Z,103.32
2018-10-17T23:20:01.781Z,110.35
2018-10-17T23:22:37.323Z,103.00
2018-10-17T23:25:12.822Z,93.25
2018-10-17T23:27:48.723Z,91.87
2018-10-17T23:30:24.053Z,92.27
2018-10-17T23:35:58.555Z,99.55
2018-10-17T23:38:33.955Z,114.17
2018-10-17T23:41:09.525Z,110.63
2018-10-17T23:43:44.982Z,100.12
2018-10-17T23:46:20.342Z,89.65
2018-10-17T23:48:55.765Z,92.27
2018-10-17T23:51:31.205Z,99.97
2018-10-17T23:54:06.829Z,99.87
2018-10-17T23:56:42.392Z,98.17
2018-10-17T23:59:17.855Z,98.62
